sensor_id;sensor_type;location;lat;lon;timestamp;P1;durP1;ratioP1;P2;durP2;ratioP2
37997;SDS011;24079;51.824;4.682;2023-04-28T00:01:18;14.38;;;7.72;;
37997;SDS011;24079;51.824;4.682;2023-04-28T00:03:44;14.98;;;8.32;;
37997;SDS011;24079;51.824;4.682;2023-04-28T00:06:10;12.82;;;7.97;;
37997;SDS011;24079;51.824;4.682;2023-04-28T00:08:36;12.73;;;8.43;;
37997;SDS011;24079;51.824;4.682;2023-04-28T00:11:02;15.60;;;8.90;;
37997;SDS011;24079;51.824;4.682;2023-04-28T00:13:33;17.90;;;9.35;;
37997;SDS011;24079;51.824;4.682;2023-04-28T00:15:59;12.70;;;8.10;;
37997;SDS011;24079;51.824;4.682;2023-04-28T00:18:25;12.02;;;8.13;;
37997;SDS011;24079;51.824;4.682;2023-04-28T00:20:51;15.20;;;8.80;;
37997;SDS011;24079;51.824;4.682;2023-04-28T00:23:18;13.02;;;7.55;;
37997;SDS011;24079;51.824;4.682;2023-04-28T00:25:44;16.65;;;8.98;;
37997;SDS011;24079;51.824;4.682;2023-04-28T00:28:15;14.73;;;7.77;;
37997;SDS011;24079;51.824;4.682;2023-04-28T00:30:41;18.20;;;8.07;;
37997;SDS011;24079;51.824;4.682;2023-04-28T00:33:07;17.27;;;9.05;;
37997;SDS011;24079;51.824;4.682;2023-04-28T00:35:33;16.38;;;8.40;;
37997;SDS011;24079;51.824;4.682;2023-04-28T00:37:59;16.13;;;9.07;;
37997;SDS011;24079;51.824;4.682;2023-04-28T00:40:31;14.45;;;8.40;;
37997;SDS011;24079;51.824;4.682;2023-04-28T00:43:01;14.02;;;8.23;;
37997;SDS011;24079;51.824;4.682;2023-04-28T00:45:27;15.40;;;8.23;;
37997;SDS011;24079;51.824;4.682;2023-04-28T00:47:52;12.45;;;8.20;;
37997;SDS011;24079;51.824;4.682;2023-04-28T00:50:20;13.88;;;8.48;;
37997;SDS011;24079;51.824;4.682;2023-04-28T00:52:47;16.67;;;8.57;;
37997;SDS011;24079;51.824;4.682;2023-04-28T00:55:13;12.57;;;7.68;;
37997;SDS011;24079;51.824;4.682;2023-04-28T00:57:41;12.65;;;8.35;;
37997;SDS011;24079;51.824;4.682;2023-04-28T01:00:07;12.48;;;8.43;;
37997;SDS011;24079;51.824;4.682;2023-04-28T01:02:34;15.32;;;8.95;;
37997;SDS011;24079;51.824;4.682;2023-04-28T01:05:00;16.13;;;8.48;;
37997;SDS011;24079;51.824;4.682;2023-04-28T01:07:26;13.63;;;8.32;;
37997;SDS011;24079;51.824;4.682;2023-04-28T01:09:52;17.90;;;8.63;;
37997;SDS011;24079;51.824;4.682;2023-04-28T01:12:18;16.67;;;8.15;;
37997;SDS011;24079;51.824;4.682;2023-04-28T01:14:44;10.77;;;7.93;;
37997;SDS011;24079;51.824;4.682;2023-04-28T01:17:10;18.38;;;8.15;;
37997;SDS011;24079;51.824;4.682;2023-04-28T01:19:37;14.70;;;8.20;;
37997;SDS011;24079;51.824;4.682;2023-04-28T01:22:03;11.70;;;7.35;;
37997;SDS011;24079;51.824;4.682;2023-04-28T01:24:29;15.18;;;8.75;;
37997;SDS011;24079;51.824;4.682;2023-04-28T01:26:55;13.05;;;7.93;;
37997;SDS011;24079;51.824;4.682;2023-04-28T01:29:21;16.55;;;8.35;;
37997;SDS011;24079;51.824;4.682;2023-04-28T01:31:47;14.38;;;8.07;;
37997;SDS011;24079;51.824;4.682;2023-04-28T01:34:13;14.15;;;8.48;;
37997;SDS011;24079;51.824;4.682;2023-04-28T01:36:39;14.20;;;9.07;;
37997;SDS011;24079;51.824;4.682;2023-04-28T01:39:05;15.45;;;8.52;;
37997;SDS011;24079;51.824;4.682;2023-04-28T01:41:31;16.10;;;8.20;;
37997;SDS011;24079;51.824;4.682;2023-04-28T01:43:58;13.70;;;7.57;;
37997;SDS011;24079;51.824;4.682;2023-04-28T01:46:24;15.25;;;8.63;;
37997;SDS011;24079;51.824;4.682;2023-04-28T01:48:50;13.02;;;8.60;;
37997;SDS011;24079;51.824;4.682;2023-04-28T01:51:15;17.50;;;8.57;;
37997;SDS011;24079;51.824;4.682;2023-04-28T01:53:41;14.60;;;8.73;;
37997;SDS011;24079;51.824;4.682;2023-04-28T01:56:06;13.20;;;8.18;;
37997;SDS011;24079;51.824;4.682;2023-04-28T01:58:32;14.75;;;9.27;;
37997;SDS011;24079;51.824;4.682;2023-04-28T02:00:58;14.18;;;8.40;;
37997;SDS011;24079;51.824;4.682;2023-04-28T02:03:23;14.32;;;8.70;;
37997;SDS011;24079;51.824;4.682;2023-04-28T02:05:49;17.08;;;8.10;;
37997;SDS011;24079;51.824;4.682;2023-04-28T02:08:14;16.98;;;9.23;;
37997;SDS011;24079;51.824;4.682;2023-04-28T02:10:40;14.75;;;9.00;;
37997;SDS011;24079;51.824;4.682;2023-04-28T02:13:06;16.90;;;8.73;;
37997;SDS011;24079;51.824;4.682;2023-04-28T02:15:32;17.52;;;10.10;;
37997;SDS011;24079;51.824;4.682;2023-04-28T02:17:59;14.15;;;8.05;;
37997;SDS011;24079;51.824;4.682;2023-04-28T02:20:25;16.35;;;8.43;;
37997;SDS011;24079;51.824;4.682;2023-04-28T02:22:51;13.85;;;8.40;;
37997;SDS011;24079;51.824;4.682;2023-04-28T02:25:16;18.25;;;9.00;;
37997;SDS011;24079;51.824;4.682;2023-04-28T02:27:42;16.08;;;8.80;;
37997;SDS011;24079;51.824;4.682;2023-04-28T02:30:09;18.90;;;9.95;;
37997;SDS011;24079;51.824;4.682;2023-04-28T02:32:35;15.75;;;8.93;;
37997;SDS011;24079;51.824;4.682;2023-04-28T02:35:01;14.85;;;8.52;;
37997;SDS011;24079;51.824;4.682;2023-04-28T02:37:27;14.30;;;9.05;;
37997;SDS011;24079;51.824;4.682;2023-04-28T02:39:53;16.73;;;9.40;;
37997;SDS011;24079;51.824;4.682;2023-04-28T02:42:19;16.13;;;9.07;;
37997;SDS011;24079;51.824;4.682;2023-04-28T02:44:45;13.68;;;8.85;;
37997;SDS011;24079;51.824;4.682;2023-04-28T02:47:11;15.05;;;9.10;;
37997;SDS011;24079;51.824;4.682;2023-04-28T02:49:37;14.10;;;9.32;;
37997;SDS011;24079;51.824;4.682;2023-04-28T02:52:03;14.40;;;8.98;;
37997;SDS011;24079;51.824;4.682;2023-04-28T02:54:29;15.38;;;8.65;;
37997;SDS011;24079;51.824;4.682;2023-04-28T02:56:57;16.40;;;9.63;;
37997;SDS011;24079;51.824;4.682;2023-04-28T02:59:23;16.45;;;9.30;;
37997;SDS011;24079;51.824;4.682;2023-04-28T03:01:50;15.63;;;9.45;;
37997;SDS011;24079;51.824;4.682;2023-04-28T03:04:16;16.25;;;9.20;;
37997;SDS011;24079;51.824;4.682;2023-04-28T03:06:42;15.10;;;9.13;;
37997;SDS011;24079;51.824;4.682;2023-04-28T03:09:09;16.75;;;9.00;;
37997;SDS011;24079;51.824;4.682;2023-04-28T03:11:35;18.83;;;9.23;;
37997;SDS011;24079;51.824;4.682;2023-04-28T03:14:01;16.13;;;9.75;;
37997;SDS011;24079;51.824;4.682;2023-04-28T03:16:27;20.50;;;10.65;;
37997;SDS011;24079;51.824;4.682;2023-04-28T03:18:53;16.83;;;9.98;;
37997;SDS011;24079;51.824;4.682;2023-04-28T03:21:19;17.23;;;10.10;;
37997;SDS011;24079;51.824;4.682;2023-04-28T03:23:46;17.98;;;10.25;;
37997;SDS011;24079;51.824;4.682;2023-04-28T03:26:12;19.25;;;10.27;;
37997;SDS011;24079;51.824;4.682;2023-04-28T03:28:38;12.65;;;9.57;;
37997;SDS011;24079;51.824;4.682;2023-04-28T03:31:04;16.40;;;10.63;;
37997;SDS011;24079;51.824;4.682;2023-04-28T03:33:30;19.33;;;9.90;;
37997;SDS011;24079;51.824;4.682;2023-04-28T03:35:56;17.63;;;9.85;;
37997;SDS011;24079;51.824;4.682;2023-04-28T03:38:22;16.83;;;10.07;;
37997;SDS011;24079;51.824;4.682;2023-04-28T03:40:48;15.68;;;10.10;;
37997;SDS011;24079;51.824;4.682;2023-04-28T03:43:14;17.20;;;10.10;;
37997;SDS011;24079;51.824;4.682;2023-04-28T03:45:40;18.30;;;10.98;;
37997;SDS011;24079;51.824;4.682;2023-04-28T03:48:06;17.17;;;11.23;;
37997;SDS011;24079;51.824;4.682;2023-04-28T03:50:32;18.30;;;10.38;;
37997;SDS011;24079;51.824;4.682;2023-04-28T03:52:58;18.67;;;11.65;;
37997;SDS011;24079;51.824;4.682;2023-04-28T03:55:24;17.33;;;10.82;;
37997;SDS011;24079;51.824;4.682;2023-04-28T03:57:51;19.30;;;10.65;;
37997;SDS011;24079;51.824;4.682;2023-04-28T04:00:17;20.17;;;11.68;;
37997;SDS011;24079;51.824;4.682;2023-04-28T04:02:43;18.92;;;11.63;;
37997;SDS011;24079;51.824;4.682;2023-04-28T04:05:10;24.60;;;11.38;;
37997;SDS011;24079;51.824;4.682;2023-04-28T04:07:36;21.33;;;11.30;;
37997;SDS011;24079;51.824;4.682;2023-04-28T04:10:02;17.45;;;11.05;;
37997;SDS011;24079;51.824;4.682;2023-04-28T04:12:28;22.90;;;12.40;;
37997;SDS011;24079;51.824;4.682;2023-04-28T04:14:54;19.70;;;11.60;;
37997;SDS011;24079;51.824;4.682;2023-04-28T04:17:20;22.42;;;12.02;;
37997;SDS011;24079;51.824;4.682;2023-04-28T04:19:45;19.27;;;12.63;;
37997;SDS011;24079;51.824;4.682;2023-04-28T04:22:11;24.20;;;12.63;;
37997;SDS011;24079;51.824;4.682;2023-04-28T04:24:37;20.55;;;12.50;;
37997;SDS011;24079;51.824;4.682;2023-04-28T04:27:02;20.90;;;11.63;;
37997;SDS011;24079;51.824;4.682;2023-04-28T04:29:28;23.63;;;12.82;;
37997;SDS011;24079;51.824;4.682;2023-04-28T04:31:53;24.98;;;13.30;;
37997;SDS011;24079;51.824;4.682;2023-04-28T04:34:19;19.23;;;11.85;;
37997;SDS011;24079;51.824;4.682;2023-04-28T04:36:45;22.10;;;13.25;;
37997;SDS011;24079;51.824;4.682;2023-04-28T04:39:10;20.13;;;12.52;;
37997;SDS011;24079;51.824;4.682;2023-04-28T04:41:36;23.67;;;12.88;;
37997;SDS011;24079;51.824;4.682;2023-04-28T04:44:02;20.17;;;12.93;;
37997;SDS011;24079;51.824;4.682;2023-04-28T04:46:28;21.77;;;13.20;;
37997;SDS011;24079;51.824;4.682;2023-04-28T04:48:54;20.63;;;13.50;;
37997;SDS011;24079;51.824;4.682;2023-04-28T04:51:20;23.73;;;14.48;;
37997;SDS011;24079;51.824;4.682;2023-04-28T04:53:45;19.33;;;13.18;;
37997;SDS011;24079;51.824;4.682;2023-04-28T04:56:11;26.90;;;15.00;;
37997;SDS011;24079;51.824;4.682;2023-04-28T04:58:37;21.42;;;13.52;;
37997;SDS011;24079;51.824;4.682;2023-04-28T05:01:02;25.17;;;15.10;;
37997;SDS011;24079;51.824;4.682;2023-04-28T05:03:28;23.33;;;14.20;;
37997;SDS011;24079;51.824;4.682;2023-04-28T05:05:54;23.88;;;15.25;;
37997;SDS011;24079;51.824;4.682;2023-04-28T05:08:20;24.17;;;15.13;;
37997;SDS011;24079;51.824;4.682;2023-04-28T05:10:47;28.42;;;15.23;;
37997;SDS011;24079;51.824;4.682;2023-04-28T05:13:13;24.05;;;14.15;;
37997;SDS011;24079;51.824;4.682;2023-04-28T05:15:39;25.50;;;15.15;;
37997;SDS011;24079;51.824;4.682;2023-04-28T05:18:05;23.50;;;14.98;;
37997;SDS011;24079;51.824;4.682;2023-04-28T05:20:35;25.30;;;15.27;;
37997;SDS011;24079;51.824;4.682;2023-04-28T05:23:02;26.90;;;16.17;;
37997;SDS011;24079;51.824;4.682;2023-04-28T05:25:28;27.02;;;16.35;;
37997;SDS011;24079;51.824;4.682;2023-04-28T05:27:55;28.90;;;17.20;;
37997;SDS011;24079;51.824;4.682;2023-04-28T05:30:20;25.52;;;15.80;;
37997;SDS011;24079;51.824;4.682;2023-04-28T05:32:46;25.60;;;17.08;;
37997;SDS011;24079;51.824;4.682;2023-04-28T05:35:12;26.95;;;15.95;;
37997;SDS011;24079;51.824;4.682;2023-04-28T05:37:40;28.50;;;17.88;;
37997;SDS011;24079;51.824;4.682;2023-04-28T05:40:08;26.05;;;17.25;;
37997;SDS011;24079;51.824;4.682;2023-04-28T05:42:35;27.95;;;16.95;;
37997;SDS011;24079;51.824;4.682;2023-04-28T05:45:01;27.35;;;16.95;;
37997;SDS011;24079;51.824;4.682;2023-04-28T05:47:27;28.00;;;17.02;;
37997;SDS011;24079;51.824;4.682;2023-04-28T05:49:54;26.92;;;17.52;;
37997;SDS011;24079;51.824;4.682;2023-04-28T05:52:20;27.13;;;17.55;;
37997;SDS011;24079;51.824;4.682;2023-04-28T05:54:46;26.40;;;17.42;;
37997;SDS011;24079;51.824;4.682;2023-04-28T05:57:12;28.17;;;18.40;;
37997;SDS011;24079;51.824;4.682;2023-04-28T05:59:38;29.17;;;17.83;;
37997;SDS011;24079;51.824;4.682;2023-04-28T06:02:04;27.63;;;17.65;;
37997;SDS011;24079;51.824;4.682;2023-04-28T06:04:30;29.40;;;18.00;;
37997;SDS011;24079;51.824;4.682;2023-04-28T06:06:56;31.00;;;18.35;;
37997;SDS011;24079;51.824;4.682;2023-04-28T06:09:21;25.67;;;17.48;;
37997;SDS011;24079;51.824;4.682;2023-04-28T06:11:47;30.15;;;18.52;;
37997;SDS011;24079;51.824;4.682;2023-04-28T06:14:13;27.23;;;18.80;;
37997;SDS011;24079;51.824;4.682;2023-04-28T06:16:38;28.55;;;17.85;;
37997;SDS011;24079;51.824;4.682;2023-04-28T06:19:04;28.95;;;19.58;;
37997;SDS011;24079;51.824;4.682;2023-04-28T06:21:29;33.53;;;20.02;;
37997;SDS011;24079;51.824;4.682;2023-04-28T06:23:56;29.77;;;19.05;;
37997;SDS011;24079;51.824;4.682;2023-04-28T06:26:22;28.60;;;18.85;;
37997;SDS011;24079;51.824;4.682;2023-04-28T06:28:48;29.48;;;19.33;;
37997;SDS011;24079;51.824;4.682;2023-04-28T06:31:15;30.58;;;19.33;;
37997;SDS011;24079;51.824;4.682;2023-04-28T06:33:41;29.25;;;20.30;;
37997;SDS011;24079;51.824;4.682;2023-04-28T06:36:07;32.17;;;19.75;;
37997;SDS011;24079;51.824;4.682;2023-04-28T06:38:33;30.17;;;20.58;;
37997;SDS011;24079;51.824;4.682;2023-04-28T06:40:58;32.15;;;20.58;;
37997;SDS011;24079;51.824;4.682;2023-04-28T06:43:24;32.50;;;21.67;;
37997;SDS011;24079;51.824;4.682;2023-04-28T06:45:50;38.00;;;20.50;;
37997;SDS011;24079;51.824;4.682;2023-04-28T06:48:16;32.10;;;21.00;;
37997;SDS011;24079;51.824;4.682;2023-04-28T06:50:42;31.17;;;21.10;;
37997;SDS011;24079;51.824;4.682;2023-04-28T06:53:08;32.58;;;21.73;;
37997;SDS011;24079;51.824;4.682;2023-04-28T06:55:34;29.25;;;20.10;;
37997;SDS011;24079;51.824;4.682;2023-04-28T06:58:00;32.42;;;21.40;;
37997;SDS011;24079;51.824;4.682;2023-04-28T07:00:26;35.08;;;22.42;;
37997;SDS011;24079;51.824;4.682;2023-04-28T07:02:52;34.17;;;21.80;;
37997;SDS011;24079;51.824;4.682;2023-04-28T07:05:18;33.38;;;21.88;;
37997;SDS011;24079;51.824;4.682;2023-04-28T07:07:44;31.65;;;21.40;;
37997;SDS011;24079;51.824;4.682;2023-04-28T07:10:10;30.40;;;21.17;;
37997;SDS011;24079;51.824;4.682;2023-04-28T07:12:37;31.25;;;21.63;;
37997;SDS011;24079;51.824;4.682;2023-04-28T07:15:03;36.00;;;22.58;;
37997;SDS011;24079;51.824;4.682;2023-04-28T07:17:30;38.95;;;21.90;;
37997;SDS011;24079;51.824;4.682;2023-04-28T07:19:56;33.22;;;22.38;;
37997;SDS011;24079;51.824;4.682;2023-04-28T07:22:22;34.53;;;21.23;;
37997;SDS011;24079;51.824;4.682;2023-04-28T07:24:48;35.83;;;23.58;;
37997;SDS011;24079;51.824;4.682;2023-04-28T07:27:14;37.65;;;24.15;;
37997;SDS011;24079;51.824;4.682;2023-04-28T07:29:39;32.53;;;22.70;;
37997;SDS011;24079;51.824;4.682;2023-04-28T07:32:05;33.15;;;23.48;;
37997;SDS011;24079;51.824;4.682;2023-04-28T07:34:51;33.53;;;22.33;;
37997;SDS011;24079;51.824;4.682;2023-04-28T07:37:17;34.75;;;22.70;;
37997;SDS011;24079;51.824;4.682;2023-04-28T07:39:42;38.05;;;23.95;;
37997;SDS011;24079;51.824;4.682;2023-04-28T07:42:08;34.67;;;23.48;;
37997;SDS011;24079;51.824;4.682;2023-04-28T07:44:35;32.78;;;23.48;;
37997;SDS011;24079;51.824;4.682;2023-04-28T07:47:01;35.33;;;23.45;;
37997;SDS011;24079;51.824;4.682;2023-04-28T07:49:27;31.58;;;23.10;;
37997;SDS011;24079;51.824;4.682;2023-04-28T07:51:54;32.40;;;22.85;;
37997;SDS011;24079;51.824;4.682;2023-04-28T07:54:21;29.77;;;21.83;;
37997;SDS011;24079;51.824;4.682;2023-04-28T07:56:47;34.20;;;23.25;;
37997;SDS011;24079;51.824;4.682;2023-04-28T07:59:13;30.02;;;22.00;;
37997;SDS011;24079;51.824;4.682;2023-04-28T08:01:39;32.45;;;21.33;;
37997;SDS011;24079;51.824;4.682;2023-04-28T08:04:07;31.75;;;21.80;;
37997;SDS011;24079;51.824;4.682;2023-04-28T08:06:32;30.70;;;22.23;;
37997;SDS011;24079;51.824;4.682;2023-04-28T08:09:00;31.88;;;22.13;;
37997;SDS011;24079;51.824;4.682;2023-04-28T08:11:26;34.50;;;23.17;;
37997;SDS011;24079;51.824;4.682;2023-04-28T08:13:52;33.28;;;22.42;;
37997;SDS011;24079;51.824;4.682;2023-04-28T08:16:18;33.40;;;23.92;;
37997;SDS011;24079;51.824;4.682;2023-04-28T08:18:44;34.15;;;23.48;;
37997;SDS011;24079;51.824;4.682;2023-04-28T08:21:10;33.90;;;24.23;;
37997;SDS011;24079;51.824;4.682;2023-04-28T08:23:36;33.00;;;22.52;;
37997;SDS011;24079;51.824;4.682;2023-04-28T08:26:03;30.50;;;22.65;;
37997;SDS011;24079;51.824;4.682;2023-04-28T08:28:28;33.33;;;23.15;;
37997;SDS011;24079;51.824;4.682;2023-04-28T08:30:54;31.02;;;22.20;;
37997;SDS011;24079;51.824;4.682;2023-04-28T08:33:21;32.75;;;22.95;;
37997;SDS011;24079;51.824;4.682;2023-04-28T08:35:48;29.25;;;21.55;;
37997;SDS011;24079;51.824;4.682;2023-04-28T08:38:15;30.63;;;22.45;;
37997;SDS011;24079;51.824;4.682;2023-04-28T08:40:42;32.42;;;22.10;;
37997;SDS011;24079;51.824;4.682;2023-04-28T08:43:08;28.30;;;21.80;;
37997;SDS011;24079;51.824;4.682;2023-04-28T08:45:42;34.15;;;24.05;;
37997;SDS011;24079;51.824;4.682;2023-04-28T08:48:19;29.88;;;22.92;;
37997;SDS011;24079;51.824;4.682;2023-04-28T08:50:50;31.05;;;22.45;;
37997;SDS011;24079;51.824;4.682;2023-04-28T08:53:20;29.60;;;23.55;;
37997;SDS011;24079;51.824;4.682;2023-04-28T08:55:53;33.15;;;22.40;;
37997;SDS011;24079;51.824;4.682;2023-04-28T08:58:24;33.55;;;24.48;;
37997;SDS011;24079;51.824;4.682;2023-04-28T09:00:50;28.08;;;22.38;;
37997;SDS011;24079;51.824;4.682;2023-04-28T09:03:18;30.83;;;23.55;;
37997;SDS011;24079;51.824;4.682;2023-04-28T09:05:44;31.75;;;23.35;;
37997;SDS011;24079;51.824;4.682;2023-04-28T09:08:10;32.35;;;24.27;;
37997;SDS011;24079;51.824;4.682;2023-04-28T09:10:36;32.38;;;25.13;;
37997;SDS011;24079;51.824;4.682;2023-04-28T09:13:03;36.70;;;25.88;;
37997;SDS011;24079;51.824;4.682;2023-04-28T09:17:55;33.95;;;25.55;;
37997;SDS011;24079;51.824;4.682;2023-04-28T09:22:49;32.80;;;25.33;;
37997;SDS011;24079;51.824;4.682;2023-04-28T09:25:16;31.58;;;24.15;;
37997;SDS011;24079;51.824;4.682;2023-04-28T09:27:43;31.33;;;23.95;;
37997;SDS011;24079;51.824;4.682;2023-04-28T09:30:10;29.83;;;21.73;;
37997;SDS011;24079;51.824;4.682;2023-04-28T09:32:36;30.15;;;20.02;;
37997;SDS011;24079;51.824;4.682;2023-04-28T09:35:03;26.85;;;18.92;;
37997;SDS011;24079;51.824;4.682;2023-04-28T09:37:35;27.58;;;18.67;;
37997;SDS011;24079;51.824;4.682;2023-04-28T09:40:13;26.08;;;19.60;;
37997;SDS011;24079;51.824;4.682;2023-04-28T09:42:43;28.45;;;19.70;;
37997;SDS011;24079;51.824;4.682;2023-04-28T09:45:12;20.92;;;15.38;;
37997;SDS011;24079;51.824;4.682;2023-04-28T09:47:40;26.33;;;16.48;;
37997;SDS011;24079;51.824;4.682;2023-04-28T09:50:07;27.10;;;14.80;;
37997;SDS011;24079;51.824;4.682;2023-04-28T09:52:37;21.20;;;14.23;;
37997;SDS011;24079;51.824;4.682;2023-04-28T09:55:06;20.80;;;13.70;;
37997;SDS011;24079;51.824;4.682;2023-04-28T09:57:33;21.52;;;13.98;;
37997;SDS011;24079;51.824;4.682;2023-04-28T10:00:01;21.75;;;12.75;;
37997;SDS011;24079;51.824;4.682;2023-04-28T10:02:30;21.23;;;13.70;;
37997;SDS011;24079;51.824;4.682;2023-04-28T10:04:58;22.35;;;12.07;;
37997;SDS011;24079;51.824;4.682;2023-04-28T10:07:25;27.00;;;13.40;;
37997;SDS011;24079;51.824;4.682;2023-04-28T10:09:52;21.30;;;12.43;;
37997;SDS011;24079;51.824;4.682;2023-04-28T10:12:19;15.98;;;9.90;;
37997;SDS011;24079;51.824;4.682;2023-04-28T10:14:46;16.60;;;10.20;;
37997;SDS011;24079;51.824;4.682;2023-04-28T10:17:15;20.00;;;11.23;;
37997;SDS011;24079;51.824;4.682;2023-04-28T10:19:45;19.77;;;10.90;;
37997;SDS011;24079;51.824;4.682;2023-04-28T10:22:19;19.50;;;12.50;;
37997;SDS011;24079;51.824;4.682;2023-04-28T10:27:48;17.20;;;11.15;;
37997;SDS011;24079;51.824;4.682;2023-04-28T10:30:15;18.58;;;10.98;;
37997;SDS011;24079;51.824;4.682;2023-04-28T10:32:43;17.63;;;11.10;;
37997;SDS011;24079;51.824;4.682;2023-04-28T10:40:45;18.15;;;10.18;;
37997;SDS011;24079;51.824;4.682;2023-04-28T10:48:50;11.77;;;5.25;;
37997;SDS011;24079;51.824;4.682;2023-04-28T10:56:19;12.45;;;7.70;;
37997;SDS011;24079;51.824;4.682;2023-04-28T10:58:48;15.27;;;8.30;;
37997;SDS011;24079;51.824;4.682;2023-04-28T11:01:27;12.90;;;8.13;;
37997;SDS011;24079;51.824;4.682;2023-04-28T11:06:37;14.60;;;7.32;;
37997;SDS011;24079;51.824;4.682;2023-04-28T11:11:38;8.35;;;5.20;;
37997;SDS011;24079;51.824;4.682;2023-04-28T11:16:55;3.30;;;2.97;;
37997;SDS011;24079;51.824;4.682;2023-04-28T11:19:28;6.00;;;3.10;;
37997;SDS011;24079;51.824;4.682;2023-04-28T11:21:56;5.30;;;3.10;;
37997;SDS011;24079;51.824;4.682;2023-04-28T11:24:23;3.95;;;2.67;;
37997;SDS011;24079;51.824;4.682;2023-04-28T11:26:50;5.30;;;3.50;;
37997;SDS011;24079;51.824;4.682;2023-04-28T11:29:16;11.98;;;4.15;;
37997;SDS011;24079;51.824;4.682;2023-04-28T11:31:49;8.80;;;4.15;;
37997;SDS011;24079;51.824;4.682;2023-04-28T11:34:18;4.60;;;2.42;;
37997;SDS011;24079;51.824;4.682;2023-04-28T11:36:45;5.10;;;2.60;;
37997;SDS011;24079;51.824;4.682;2023-04-28T11:39:12;3.40;;;2.28;;
37997;SDS011;24079;51.824;4.682;2023-04-28T11:44:24;5.75;;;2.50;;
37997;SDS011;24079;51.824;4.682;2023-04-28T11:46:52;4.57;;;2.40;;
37997;SDS011;24079;51.824;4.682;2023-04-28T11:49:42;5.15;;;2.47;;
37997;SDS011;24079;51.824;4.682;2023-04-28T11:52:10;3.42;;;2.47;;
37997;SDS011;24079;51.824;4.682;2023-04-28T11:54:36;7.53;;;3.63;;
37997;SDS011;24079;51.824;4.682;2023-04-28T11:57:03;6.38;;;3.30;;
37997;SDS011;24079;51.824;4.682;2023-04-28T12:01:58;11.40;;;4.20;;
37997;SDS011;24079;51.824;4.682;2023-04-28T12:04:41;5.43;;;3.60;;
37997;SDS011;24079;51.824;4.682;2023-04-28T12:12:13;3.55;;;3.20;;
37997;SDS011;24079;51.824;4.682;2023-04-28T12:14:53;3.47;;;3.10;;
37997;SDS011;24079;51.824;4.682;2023-04-28T12:17:53;4.25;;;3.03;;
37997;SDS011;24079;51.824;4.682;2023-04-28T12:22:59;4.88;;;3.15;;
37997;SDS011;24079;51.824;4.682;2023-04-28T12:25:26;5.40;;;3.75;;
37997;SDS011;24079;51.824;4.682;2023-04-28T12:27:59;4.60;;;3.70;;
37997;SDS011;24079;51.824;4.682;2023-04-28T12:30:27;5.05;;;4.18;;
37997;SDS011;24079;51.824;4.682;2023-04-28T12:32:54;8.63;;;4.75;;
37997;SDS011;24079;51.824;4.682;2023-04-28T12:35:21;5.88;;;4.75;;
37997;SDS011;24079;51.824;4.682;2023-04-28T12:37:48;8.15;;;5.20;;
37997;SDS011;24079;51.824;4.682;2023-04-28T12:40:14;7.40;;;5.10;;
37997;SDS011;24079;51.824;4.682;2023-04-28T12:42:40;5.97;;;5.10;;
37997;SDS011;24079;51.824;4.682;2023-04-28T12:45:06;9.63;;;5.68;;
37997;SDS011;24079;51.824;4.682;2023-04-28T12:47:35;8.93;;;5.80;;
37997;SDS011;24079;51.824;4.682;2023-04-28T12:50:03;7.93;;;6.18;;
37997;SDS011;24079;51.824;4.682;2023-04-28T12:52:29;11.20;;;5.80;;
37997;SDS011;24079;51.824;4.682;2023-04-28T12:54:57;9.48;;;5.53;;
37997;SDS011;24079;51.824;4.682;2023-04-28T12:57:23;12.85;;;7.13;;
37997;SDS011;24079;51.824;4.682;2023-04-28T12:59:50;8.98;;;6.22;;
37997;SDS011;24079;51.824;4.682;2023-04-28T13:02:17;12.85;;;7.72;;
37997;SDS011;24079;51.824;4.682;2023-04-28T13:04:43;12.88;;;7.25;;
37997;SDS011;24079;51.824;4.682;2023-04-28T13:07:13;18.40;;;7.30;;
37997;SDS011;24079;51.824;4.682;2023-04-28T13:09:40;14.18;;;6.80;;
37997;SDS011;24079;51.824;4.682;2023-04-28T13:12:09;13.30;;;6.30;;
37997;SDS011;24079;51.824;4.682;2023-04-28T13:14:36;13.43;;;6.55;;
37997;SDS011;24079;51.824;4.682;2023-04-28T13:17:02;12.82;;;5.95;;
37997;SDS011;24079;51.824;4.682;2023-04-28T13:19:28;11.98;;;5.97;;
37997;SDS011;24079;51.824;4.682;2023-04-28T13:21:55;9.27;;;6.28;;
37997;SDS011;24079;51.824;4.682;2023-04-28T13:24:21;9.57;;;6.70;;
37997;SDS011;24079;51.824;4.682;2023-04-28T13:26:46;10.55;;;7.03;;
37997;SDS011;24079;51.824;4.682;2023-04-28T13:29:12;14.52;;;7.28;;
37997;SDS011;24079;51.824;4.682;2023-04-28T13:31:39;15.63;;;9.48;;
37997;SDS011;24079;51.824;4.682;2023-04-28T13:34:05;15.82;;;9.10;;
37997;SDS011;24079;51.824;4.682;2023-04-28T13:36:32;14.15;;;8.80;;
37997;SDS011;24079;51.824;4.682;2023-04-28T13:38:58;19.50;;;10.70;;
37997;SDS011;24079;51.824;4.682;2023-04-28T13:41:25;17.63;;;10.30;;
37997;SDS011;24079;51.824;4.682;2023-04-28T13:43:52;18.80;;;10.00;;
37997;SDS011;24079;51.824;4.682;2023-04-28T13:46:18;16.13;;;10.05;;
37997;SDS011;24079;51.824;4.682;2023-04-28T13:48:44;21.30;;;10.02;;
37997;SDS011;24079;51.824;4.682;2023-04-28T13:51:10;18.23;;;10.10;;
37997;SDS011;24079;51.824;4.682;2023-04-28T13:53:36;17.98;;;10.32;;
37997;SDS011;24079;51.824;4.682;2023-04-28T13:56:02;21.85;;;11.30;;
37997;SDS011;24079;51.824;4.682;2023-04-28T13:58:32;25.63;;;14.30;;
37997;SDS011;24079;51.824;4.682;2023-04-28T14:00:59;27.77;;;12.50;;
37997;SDS011;24079;51.824;4.682;2023-04-28T14:03:25;23.33;;;12.32;;
37997;SDS011;24079;51.824;4.682;2023-04-28T14:05:53;23.83;;;13.32;;
37997;SDS011;24079;51.824;4.682;2023-04-28T14:08:22;26.98;;;14.98;;
37997;SDS011;24079;51.824;4.682;2023-04-28T14:10:49;25.30;;;12.85;;
37997;SDS011;24079;51.824;4.682;2023-04-28T14:13:16;30.00;;;13.75;;
37997;SDS011;24079;51.824;4.682;2023-04-28T14:15:43;27.17;;;13.45;;
37997;SDS011;24079;51.824;4.682;2023-04-28T14:18:10;31.58;;;15.60;;
37997;SDS011;24079;51.824;4.682;2023-04-28T14:20:37;31.80;;;15.05;;
37997;SDS011;24079;51.824;4.682;2023-04-28T14:23:04;26.90;;;13.57;;
37997;SDS011;24079;51.824;4.682;2023-04-28T14:25:30;35.92;;;14.60;;
37997;SDS011;24079;51.824;4.682;2023-04-28T14:27:56;28.52;;;14.30;;
37997;SDS011;24079;51.824;4.682;2023-04-28T14:30:22;28.23;;;13.55;;
37997;SDS011;24079;51.824;4.682;2023-04-28T14:32:54;27.25;;;13.55;;
37997;SDS011;24079;51.824;4.682;2023-04-28T14:35:20;27.13;;;13.50;;
37997;SDS011;24079;51.824;4.682;2023-04-28T14:37:46;34.15;;;14.10;;
37997;SDS011;24079;51.824;4.682;2023-04-28T14:40:12;26.33;;;13.68;;
37997;SDS011;24079;51.824;4.682;2023-04-28T14:42:39;22.60;;;11.90;;
37997;SDS011;24079;51.824;4.682;2023-04-28T14:45:06;26.05;;;12.32;;
37997;SDS011;24079;51.824;4.682;2023-04-28T14:47:34;28.08;;;13.77;;
37997;SDS011;24079;51.824;4.682;2023-04-28T14:50:05;22.80;;;11.85;;
37997;SDS011;24079;51.824;4.682;2023-04-28T14:52:32;26.75;;;12.68;;
37997;SDS011;24079;51.824;4.682;2023-04-28T14:54:58;29.42;;;11.57;;
37997;SDS011;24079;51.824;4.682;2023-04-28T14:57:25;23.23;;;11.18;;
37997;SDS011;24079;51.824;4.682;2023-04-28T14:59:52;27.17;;;10.98;;
37997;SDS011;24079;51.824;4.682;2023-04-28T15:02:18;19.60;;;10.95;;
37997;SDS011;24079;51.824;4.682;2023-04-28T15:04:46;21.40;;;10.13;;
37997;SDS011;24079;51.824;4.682;2023-04-28T15:07:12;29.70;;;11.27;;
37997;SDS011;24079;51.824;4.682;2023-04-28T15:09:38;29.42;;;12.23;;
37997;SDS011;24079;51.824;4.682;2023-04-28T15:12:05;31.00;;;11.88;;